createdAt,value
2022-10-05T00:04:13.556Z,100997.94
2022-10-05T00:14:38.203Z,100995.63
2022-10-05T00:24:51.851Z,100990.69
2022-10-05T00:35:32.978Z,100979.20
2022-10-05T00:46:49.110Z,100971.52
2022-10-05T00:58:06.903Z,100988.92
2022-10-05T01:08:59.083Z,100991.33
2022-10-05T01:19:34.351Z,100978.69
2022-10-05T01:30:30.675Z,100993.63
2022-10-05T01:41:23.115Z,100986.80
2022-10-05T01:52:25.968Z,100974.25
2022-10-05T02:03:52.819Z,100999.86
2022-10-05T02:14:50.545Z,100995.47
2022-10-05T02:25:22.563Z,100977.98
2022-10-05T02:36:02.230Z,100943.51
2022-10-05T02:46:57.179Z,100943.48
2022-10-05T02:57:39.135Z,100942.96
2022-10-05T03:08:37.219Z,100951.20
2022-10-05T03:19:22.515Z,100969.39
2022-10-05T03:30:27.766Z,100968.64
2022-10-05T03:41:45.859Z,100976.23
2022-10-05T03:52:22.202Z,100957.04
2022-10-05T04:03:18.319Z,100950.59
2022-10-05T04:13:49.236Z,100939.79
2022-10-05T04:24:09.671Z,100934.66
2022-10-05T04:35:16.063Z,100947.87
2022-10-05T04:46:10.841Z,100955.27
2022-10-05T04:57:22.314Z,100958.73
2022-10-05T05:08:25.434Z,100958.53
2022-10-05T05:19:12.271Z,100972.67
2022-10-05T05:29:51.682Z,100974.51
2022-10-05T05:41:20.288Z,100973.85
2022-10-05T05:52:28.564Z,100967.27
2022-10-05T06:03:37.543Z,100972.61
2022-10-05T06:14:18.690Z,100973.80
2022-10-05T06:25:18.411Z,100968.93
2022-10-05T06:36:27.486Z,100956.05
2022-10-05T06:47:44.900Z,100959.10
2022-10-05T06:58:42.527Z,100973.04
2022-10-05T07:09:21.021Z,100986.38
2022-10-05T07:19:57.082Z,100975.44
2022-10-05T07:30:18.616Z,100967.95
2022-10-05T07:41:43.790Z,100967.43
2022-10-05T07:52:36.769Z,100955.70
2022-10-05T08:02:49.160Z,100953.45
2022-10-05T08:13:39.755Z,100949.31
2022-10-05T08:23:56.707Z,100940.12
2022-10-05T08:34:44.081Z,100930.29
2022-10-05T08:45:03.744Z,100925.33
2022-10-05T08:55:33.885Z,100928.05
2022-10-05T09:06:20.991Z,100921.38
2022-10-05T09:16:59.508Z,100909.16
2022-10-05T09:27:43.909Z,100895.60
2022-10-05T09:38:12.157Z,100882.21
2022-10-05T09:49:04.554Z,100885.23
2022-10-05T10:00:05.455Z,100893.16
2022-10-05T10:10:48.320Z,100891.42
2022-10-05T10:21:35.211Z,100907.35
2022-10-05T10:32:13.094Z,100916.83
2022-10-05T10:42:34.224Z,100908.06
2022-10-05T10:52:57.713Z,100880.85
2022-10-05T11:03:22.137Z,100854.77
2022-10-05T11:13:35.707Z,100850.44
2022-10-05T11:24:00.952Z,100840.08
2022-10-05T11:34:56.644Z,100845.55
2022-10-05T11:45:32.266Z,100834.49
2022-10-05T11:55:50.769Z,100832.13
2022-10-05T12:06:22.373Z,100836.98
2022-10-05T12:16:44.923Z,100834.55
2022-10-05T12:26:58.709Z,100832.20
2022-10-05T12:37:39.613Z,100826.24
2022-10-05T12:48:10.903Z,100827.45
2022-10-05T12:58:45.886Z,100826.29
2022-10-05T13:09:32.266Z,100828.21
2022-10-05T13:19:54.114Z,100816.40
2022-10-05T13:30:19.837Z,100819.38
2022-10-05T13:40:50.027Z,100814.52
2022-10-05T13:51:39.625Z,100814.54
2022-10-05T14:01:57.561Z,100827.83
2022-10-05T14:12:05.928Z,100811.09
2022-10-05T14:22:16.791Z,100788.26
2022-10-05T14:32:44.348Z,100784.68
2022-10-05T14:42:53.790Z,100783.08
2022-10-05T14:53:05.994Z,100784.36
2022-10-05T15:03:25.727Z,100777.95
2022-10-05T15:13:37.704Z,100781.58
2022-10-05T15:23:53.071Z,100765.19
2022-10-05T15:34:08.100Z,100758.27
2022-10-05T15:44:46.182Z,100757.94
2022-10-05T15:55:28.556Z,100746.34
2022-10-05T16:06:25.350Z,100756.13
2022-10-05T16:17:07.656Z,100753.86
2022-10-05T16:27:33.080Z,100740.58
2022-10-05T16:38:02.855Z,100723.08
2022-10-05T16:48:33.876Z,100720.75
2022-10-05T16:58:48.274Z,100713.80
2022-10-05T17:09:36.854Z,100714.55
2022-10-05T17:20:09.275Z,100717.23
2022-10-05T17:30:54.184Z,100717.08
2022-10-05T17:41:16.603Z,100718.27
2022-10-05T17:51:53.610Z,100708.59
2022-10-05T18:02:38.724Z,100705.93
2022-10-05T18:13:34.245Z,100699.36
2022-10-05T18:23:51.524Z,100698.21
2022-10-05T18:34:07.601Z,100694.81
2022-10-05T18:44:53.203Z,100696.65
2022-10-05T18:55:54.007Z,100695.81
2022-10-05T19:06:19.717Z,100696.71
2022-10-05T19:17:10.877Z,100694.83
2022-10-05T19:27:55.373Z,100690.05
2022-10-05T19:48:48.997Z,100682.98
2022-10-05T19:59:09.608Z,100694.98
2022-10-05T20:09:24.188Z,100703.02
2022-10-05T20:20:19.419Z,100708.34
2022-10-05T20:30:57.243Z,100712.71
2022-10-05T20:41:26.733Z,100717.02
2022-10-05T20:51:50.235Z,100718.91
2022-10-05T21:02:13.887Z,100719.54
2022-10-05T21:12:32.497Z,100730.13
2022-10-05T21:22:38.727Z,100732.17
2022-10-05T21:43:27.300Z,100742.48
2022-10-05T21:54:10.033Z,100747.63
2022-10-05T22:05:23.563Z,100750.48
2022-10-05T22:15:34.010Z,100746.86
2022-10-05T22:26:08.776Z,100750.29
2022-10-05T22:36:22.135Z,100744.98
2022-10-05T22:46:53.051Z,100738.27
2022-10-05T22:57:07.746Z,100744.91
2022-10-05T23:07:11.424Z,100753.70
2022-10-05T23:17:26.865Z,100759.78
2022-10-05T23:27:42.889Z,100766.46
2022-10-05T23:37:49.167Z,100773.34
2022-10-05T23:48:32.392Z,100770.52
2022-10-05T23:58:50.216Z,100773.76
